Archival Weather

Republic

Farmingdale, New York (KFRG)

Report from: Tuesday, January 30, 2024 12:53 AM EST
Current time: Friday, June 21, 2024 4:24 AM EDT

Current weather – Weather history – Daily summaries
Weather forecast

Temperature1.7°C (35.1°F)
Wind chill-1.9°C (28.5°F)
Dew point-3.3°C (26.1°F)
Winds 7 kts (3.6 m/s, 8.1 mph) North (10°)
Visibility10 mi. (16.1 km)
Clouds Ceiling: Overcast 3,300 ft. (1,006 m)
Altimeter30.11 in.Hg (1020 mB)
Relative humidity69 %
Density altitude-1,760 ft. (-537 m)
Sea-level pressure102.0 kPa (1020 mB, 30.11 in.Hg)
Max temp last 6 hours2.8°C (37.0°F)
Min temp last 6 hours1.7°C (35.1°F)
Remarks Automated weather observing station without precipitation discriminator
Pressure rising more quickly
Flight conditions Visual Meteorological Conditions
Raw dataKFRG 300553Z 01007KT 10SM OVC033 02/M03 A3011 RMK AO1 SLP196 T00171033 10028 20017 53013
An error has occurred. This application may no longer respond until reloaded. Reload 🗙